Time;durP1;ratioP1;P1;durP2;ratioP2;P2;SDS_P1;SDS_P2;PMS_P1;PMS_P2;Temp;Humidity;BMP_temperature;BMP_pressure;BME280_temperature;BME280_humidity;BME280_pressure;Samples;Min_cycle;Max_cycle;Signal;HPM_P1;HPM_P2
2022/01/12 00:00:18;;;;;;;20.17;10.57;;;;;;;-144.19;100.00;79339.88;4977181;28;20057;-90
2022/01/12 00:02:45;;;;;;;21.23;11.38;;;;;;;-144.19;100.00;79335.94;4976568;28;20051;-90
2022/01/12 00:05:12;;;;;;;24.63;10.55;;;;;;;-144.19;100.00;79322.16;4977942;28;20055;-90
2022/01/12 00:07:38;;;;;;;19.77;10.15;;;;;;;-144.19;100.00;79332.00;4976265;28;20061;-90
2022/01/12 00:10:05;;;;;;;19.30;9.40;;;;;;;-144.19;100.00;79332.00;4976050;28;20688;-91
2022/01/12 00:12:32;;;;;;;18.23;9.88;;;;;;;-144.19;100.00;79328.06;4976723;28;20298;-91
2022/01/12 00:14:58;;;;;;;20.08;10.27;;;;;;;-144.19;100.00;79339.88;4976330;28;20057;-90
2022/01/12 00:17:25;;;;;;;14.32;9.10;;;;;;;-144.19;100.00;79328.06;4976826;28;20074;-90
2022/01/12 00:19:51;;;;;;;19.65;11.40;;;;;;;-144.19;100.00;79343.81;4978073;28;20178;-90
2022/01/12 00:22:17;;;;;;;22.77;10.23;;;;;;;-144.19;100.00;79343.81;4985488;28;20501;-90
2022/01/12 00:33:12;;;;;;;16.13;9.80;;;;;;;-144.19;100.00;79324.13;4977525;28;20058;-91
2022/01/12 00:35:47;;;;;;;20.95;10.95;;;;;;;-144.19;100.00;79339.88;4976941;28;20046;-90
2022/01/12 00:38:15;;;;;;;19.35;10.65;;;;;;;-144.19;100.00;79343.81;4976142;28;20111;-91
2022/01/12 00:40:50;;;;;;;22.70;12.35;;;;;;;-144.19;100.00;79335.94;4976214;28;20063;-90
2022/01/12 00:43:18;;;;;;;23.05;11.40;;;;;;;-144.19;100.00;79347.78;4957104;28;20075;-90
2022/01/12 00:45:47;;;;;;;18.02;9.98;;;;;;;-144.19;100.00;79347.78;4955674;28;20051;-90
2022/01/12 00:48:15;;;;;;;24.45;12.27;;;;;;;-144.19;100.00;79345.81;4956603;29;20051;-91
2022/01/12 00:50:43;;;;;;;22.15;12.60;;;;;;;-144.19;100.00;79343.81;4956003;29;20065;-90
2022/01/12 00:53:09;;;;;;;25.15;12.32;;;;;;;-144.19;100.00;79365.50;4976743;28;20054;-91
2022/01/12 00:55:36;;;;;;;18.35;10.20;;;;;;;-144.19;100.00;79367.47;4990884;28;20065;-90
2022/01/12 00:58:04;;;;;;;20.15;9.25;;;;;;;-144.19;100.00;79355.66;4976345;28;20047;-91
2022/01/12 01:00:31;;;;;;;;;;;;;;;-144.19;100.00;79363.53;4977437;28;20569;-90
2022/01/12 01:02:58;;;;;;;16.38;8.48;;;;;;;-144.19;100.00;79369.44;4975643;28;19926;-91
2022/01/12 01:05:27;;;;;;;14.68;9.45;;;;;;;-144.19;100.00;79367.47;4975777;28;20055;-91
2022/01/12 01:07:54;;;;;;;18.73;9.95;;;;;;;-144.19;100.00;79367.47;4976515;28;20051;-91
2022/01/12 01:11:04;;;;;;;20.67;10.57;;;;;;;-144.19;100.00;79371.41;4976800;28;20072;-90
2022/01/12 01:13:16;;;;;;;24.98;12.80;;;;;;;-144.19;100.00;79355.66;4966281;28;20070;-90
2022/01/12 01:26:41;;;;;;;20.73;11.63;;;;;;;-144.19;100.00;79379.28;4976288;28;20490;-91
2022/01/12 01:29:08;;;;;;;21.17;12.43;;;;;;;-144.19;100.00;79398.97;4975301;28;20054;-91
2022/01/12 01:31:36;;;;;;;19.58;11.73;;;;;;;-144.19;100.00;79389.13;4974803;28;20070;-90
2022/01/12 01:34:12;;;;;;;19.80;10.75;;;;;;;-144.19;100.00;79402.91;4975214;28;20064;-91
2022/01/12 01:36:44;;;;;;;20.92;10.77;;;;;;;-144.19;100.00;79402.91;4975118;28;20047;-91
2022/01/12 01:39:13;;;;;;;27.33;15.10;;;;;;;-144.19;100.00;79414.75;4975238;28;20068;-90
2022/01/12 01:41:43;;;;;;;25.17;14.73;;;;;;;-144.19;100.00;79400.94;4975247;28;20198;-92
2022/01/12 01:54:58;;;;;;;27.15;15.13;;;;;;;-144.19;100.00;79446.25;4975300;28;20141;-91
2022/01/12 01:57:26;;;;;;;26.77;15.15;;;;;;;-144.19;100.00;79454.13;4992694;28;20397;-91
2022/01/12 01:59:52;;;;;;;29.60;15.50;;;;;;;-144.19;100.00;79442.31;4992954;28;20054;-91
2022/01/12 02:02:18;;;;;;;26.65;15.50;;;;;;;-144.19;100.00;79434.44;4991727;28;20113;-92
2022/01/12 02:04:46;;;;;;;25.80;15.77;;;;;;;-144.19;100.00;79469.91;4992108;28;20057;-91
2022/01/12 02:07:14;;;;;;;;;;;;;;;-144.19;100.00;79481.72;5000929;28;20046;-90
2022/01/12 02:09:41;;;;;;;22.85;12.23;;;;;;;-144.19;100.00;79489.59;4997412;28;19922;-92
2022/01/12 02:12:08;;;;;;;;;;;;;;;-144.19;100.00;79483.69;4992330;28;20116;-91
2022/01/12 02:14:34;;;;;;;22.92;14.10;;;;;;;-144.19;100.00;79485.66;4996171;23;19925;-88
2022/01/12 02:17:08;;;;;;;22.23;12.13;;;;;;;-144.19;100.00;79489.59;4972189;28;20054;-88
2022/01/12 02:36:07;;;;;;;33.00;17.30;;;;;;;-144.19;100.00;79467.94;4971844;28;20066;-88
2022/01/12 02:41:19;;;;;;;33.00;16.73;;;;;;;-144.19;100.00;79473.84;4973278;28;20046;-88
2022/01/12 02:54:53;;;;;;;25.40;15.32;;;;;;;-144.19;100.00;79446.25;4972136;28;20497;-87
2022/01/12 02:57:20;;;;;;;17.48;11.20;;;;;;;-144.19;100.00;79458.06;4955576;28;20055;-88
2022/01/12 03:00:09;;;;;;;34.97;15.52;;;;;;;-144.19;100.00;79485.66;4955233;28;20464;-87
2022/01/12 03:02:40;;;;;;;33.22;17.27;;;;;;;-144.19;100.00;79481.72;4972820;28;20050;-87
2022/01/12 03:07:39;;;;;;;31.35;18.23;;;;;;;-144.19;100.00;79477.78;4972112;28;20051;-88
2022/01/12 03:10:08;;;;;;;29.75;15.90;;;;;;;-144.19;100.00;79469.91;4957836;28;20058;-87
2022/01/12 03:12:39;;;;;;;28.92;15.27;;;;;;;-144.19;100.00;79481.72;4975508;28;20058;-88
2022/01/12 03:15:06;;;;;;;27.67;14.38;;;;;;;-144.19;100.00;79503.38;4958363;28;20054;-87
2022/01/12 03:17:34;;;;;;;29.17;16.13;;;;;;;-144.19;100.00;79493.53;4973287;28;20046;-86
2022/01/12 03:20:03;;;;;;;32.75;15.23;;;;;;;-144.19;100.00;79501.41;4956806;29;20415;-87
2022/01/12 03:22:29;;;;;;;32.58;17.30;;;;;;;-144.19;100.00;79489.59;4939569;29;20063;-87
2022/01/12 03:24:56;;;;;;;29.83;16.67;;;;;;;-144.19;100.00;79485.66;4955727;29;20062;-87
2022/01/12 03:27:25;;;;;;;34.22;19.48;;;;;;;-144.19;100.00;79481.72;4962357;28;20053;-88
2022/01/12 03:29:55;;;;;;;28.02;15.30;;;;;;;-144.19;100.00;79501.41;4982443;28;20050;-89
2022/01/12 03:32:34;;;;;;;21.45;12.80;;;;;;;-144.19;100.00;79513.22;4994969;28;20057;-88
2022/01/12 03:35:09;;;;;;;23.15;13.95;;;;;;;-144.19;100.00;79511.25;4977941;28;20154;-89
2022/01/12 03:38:19;;;;;;;24.50;13.88;;;;;;;-144.19;100.00;79505.34;4977612;28;20428;-89
2022/01/12 03:40:30;;;;;;;23.17;13.77;;;;;;;-144.19;100.00;79513.22;4994735;28;20057;-87
2022/01/12 03:42:57;;;;;;;28.33;13.30;;;;;;;-144.19;100.00;79509.28;4994985;28;20057;-88
2022/01/12 03:45:23;;;;;;;24.03;14.33;;;;;;;-144.19;100.00;79511.25;4995381;28;20413;-88
2022/01/12 03:47:49;;;;;;;22.35;13.77;;;;;;;-144.19;100.00;79523.09;4977738;28;20330;-88
2022/01/12 03:50:16;;;;;;;20.20;13.53;;;;;;;-144.19;100.00;79509.28;4950065;28;20055;-88
2022/01/12 03:52:42;;;;;;;27.35;17.27;;;;;;;-144.19;100.00;79493.53;4958746;28;20035;-87
2022/01/12 03:55:09;;;;;;;31.80;16.17;;;;;;;-144.19;100.00;79485.66;4977726;28;20036;-86
2022/01/12 03:57:35;;;;;;;26.40;15.45;;;;;;;-144.19;100.00;79489.59;4965262;28;20130;-87
2022/01/12 04:00:04;;;;;;;23.73;15.13;;;;;;;-144.19;100.00;79485.66;4948027;28;20051;-87
2022/01/12 04:02:32;;;;;;;25.77;15.38;;;;;;;-144.19;100.00;79493.53;4950839;28;20293;-89
2022/01/12 04:10:36;;;;;;;27.67;14.98;;;;;;;-144.19;100.00;79521.13;4974552;28;20501;-87
2022/01/12 04:13:03;;;;;;;28.92;16.85;;;;;;;-144.19;100.00;79519.13;4957581;28;20509;-88
2022/01/12 04:15:30;;;;;;;24.98;15.05;;;;;;;-144.19;100.00;79521.13;4957018;28;20057;-88
2022/01/12 04:17:56;;;;;;;26.42;15.23;;;;;;;-144.19;100.00;79513.22;4969167;28;20043;-89
2022/01/12 04:20:22;;;;;;;26.05;16.40;;;;;;;-144.19;100.00;79513.22;4953161;28;20057;-89
2022/01/12 04:25:34;;;;;;;27.50;16.48;;;;;;;-144.19;100.00;79529.00;4956042;29;20062;-90
2022/01/12 04:28:00;;;;;;;29.03;18.57;;;;;;;-144.19;100.00;79521.13;4938055;29;20051;-89
2022/01/12 04:30:27;;;;;;;35.83;18.97;;;;;;;-144.19;100.00;79521.13;4954407;29;20646;-90
2022/01/12 04:32:53;;;;;;;32.75;19.67;;;;;;;-144.19;100.00;79505.34;4956099;29;20086;-90
2022/01/12 04:35:24;;;;;;;39.35;22.27;;;;;;;-144.19;100.00;79497.47;4955665;29;20061;-89
2022/01/12 04:37:51;;;;;;;43.35;22.10;;;;;;;-144.19;100.00;79499.44;4938871;29;20371;-90
2022/01/12 04:40:17;;;;;;;35.60;19.77;;;;;;;-144.19;100.00;79475.81;4938471;29;20051;-89
2022/01/12 04:42:43;;;;;;;44.43;22.80;;;;;;;-144.19;100.00;79469.91;4954003;29;20055;-89
2022/01/12 04:49:25;;;;;;;42.40;23.23;;;;;;;-144.19;100.00;79529.00;4960890;29;20278;-86
2022/01/12 04:51:52;;;;;;;47.47;26.00;;;;;;;-144.19;100.00;79529.00;4979329;28;20075;-87
2022/01/12 04:54:18;;;;;;;41.90;23.00;;;;;;;-144.19;100.00;79521.13;4970198;28;20054;-88
2022/01/12 04:56:45;;;;;;;47.95;25.50;;;;;;;-144.19;100.00;79513.22;4956630;28;20563;-89
2022/01/12 04:59:11;;;;;;;45.67;23.77;;;;;;;-144.19;100.00;79536.88;4957208;28;20057;-89
2022/01/12 05:01:48;;;;;;;44.57;24.93;;;;;;;-144.19;100.00;79521.13;4956892;28;20050;-90
2022/01/12 05:10:02;;;;;;;44.97;25.00;;;;;;;-144.19;100.00;79521.13;4973808;28;20057;-89
2022/01/12 05:15:22;;;;;;;44.97;25.90;;;;;;;-144.19;100.00;79546.72;4974001;28;20050;-89
2022/01/12 05:17:48;;;;;;;39.90;22.67;;;;;;;-144.19;100.00;79523.09;4971290;28;20054;-90
2022/01/12 05:20:14;;;;;;;38.63;22.43;;;;;;;-144.19;100.00;79542.78;4940158;28;20047;-90
2022/01/12 05:22:41;;;;;;;40.75;21.40;;;;;;;-144.19;100.00;79538.84;4952904;28;20051;-89
2022/01/12 05:25:07;;;;;;;39.97;19.83;;;;;;;-144.19;100.00;79525.06;4956135;28;20512;-89
2022/01/12 05:27:34;;;;;;;33.83;20.50;;;;;;;-144.19;100.00;79550.66;4956109;28;20310;-89
2022/01/12 05:30:00;;;;;;;40.83;21.40;;;;;;;-144.19;100.00;79540.81;4956140;28;20402;-91
2022/01/12 05:32:27;;;;;;;40.03;23.03;;;;;;;-144.19;100.00;79525.06;4956288;28;20736;-89
2022/01/12 05:35:00;;;;;;;46.75;26.10;;;;;;;-144.19;100.00;79529.00;4955918;28;20310;-89
2022/01/12 05:37:27;;;;;;;48.53;26.83;;;;;;;-144.19;100.00;79538.84;4973716;28;20441;-89
2022/01/12 05:39:53;;;;;;;46.88;27.00;;;;;;;-144.19;100.00;79532.94;4956312;28;20061;-89
2022/01/12 05:42:26;;;;;;;43.38;23.50;;;;;;;-144.19;100.00;79548.69;4956596;28;20054;-89
2022/01/12 05:44:52;;;;;;;50.35;25.70;;;;;;;-144.19;100.00;79538.84;4956110;28;20062;-89
2022/01/12 05:47:36;;;;;;;54.88;28.58;;;;;;;-144.19;100.00;79527.03;4975917;28;20094;-89
2022/01/12 05:50:03;;;;;;;55.97;27.27;;;;;;;-144.19;100.00;79544.75;4997436;28;20031;-88
2022/01/12 05:52:30;;;;;;;50.60;27.13;;;;;;;-144.19;100.00;79560.50;4995069;28;20054;-89
2022/01/12 05:55:04;;;;;;;46.90;25.77;;;;;;;-144.19;100.00;79554.59;4976582;28;20058;-87
2022/01/12 05:57:57;;;;;;;58.47;29.98;;;;;;;-144.19;100.00;79540.81;4975889;28;20047;-87
2022/01/12 06:00:29;;;;;;;48.38;25.98;;;;;;;-144.19;100.00;79568.38;4976515;28;20055;-87
2022/01/12 06:03:22;;;;;;;49.92;26.25;;;;;;;-144.19;100.00;79556.56;4932234;29;20055;-90
2022/01/12 06:08:57;;;;;;;53.53;27.02;;;;;;;-144.19;100.00;79562.47;4985309;28;20043;-89
2022/01/12 06:11:33;;;;;;;51.88;25.65;;;;;;;-144.19;100.00;79552.63;4991976;28;20078;-89
2022/01/12 06:14:07;;;;;;;46.92;25.35;;;;;;;-144.19;100.00;79566.41;4972394;28;20059;-88
2022/01/12 06:16:35;;;;;;;51.80;26.65;;;;;;;-144.19;100.00;79540.81;4962449;29;20061;-88
2022/01/12 06:19:18;;;;;;;;;;;;;;;;;;;;;
2022/01/12 06:22:14;;;;;;;51.63;28.50;;;;;;;-144.19;100.00;79544.75;4992937;28;20058;-88
2022/01/12 06:25:09;;;;;;;59.10;28.77;;;;;;;-144.19;100.00;79556.56;4976639;28;20050;-88
2022/01/12 06:31:13;;;;;;;49.22;26.77;;;;;;;-144.19;100.00;79564.44;4992993;28;20081;-88
2022/01/12 06:33:47;;;;;;;62.00;29.60;;;;;;;-144.19;100.00;79548.69;4975990;28;20060;-88
2022/01/12 06:36:21;;;;;;;56.70;29.67;;;;;;;-144.19;100.00;79552.63;4976023;28;20061;-88
2022/01/12 06:38:56;;;;;;;46.55;25.92;;;;;;;-144.19;100.00;79588.09;4976704;28;20061;-87
2022/01/12 06:41:38;;;;;;;44.42;23.70;;;;;;;-144.19;100.00;79590.06;4975670;28;20055;-88
2022/01/12 06:44:07;;;;;;;42.38;24.55;;;;;;;-144.19;100.00;79615.66;4976345;28;20038;-89
2022/01/12 06:46:38;;;;;;;42.38;23.30;;;;;;;-144.19;100.00;79611.72;4976181;28;20313;-88
2022/01/12 06:49:16;;;;;;;47.30;23.25;;;;;;;-144.19;100.00;79605.81;4991593;28;20066;-87
2022/01/12 06:51:49;;;;;;;43.00;22.10;;;;;;;-144.19;100.00;79597.94;4976339;28;20050;-88
2022/01/12 06:54:20;;;;;;;48.53;25.27;;;;;;;-144.19;100.00;79588.09;4976760;28;20138;-88
2022/01/12 06:56:51;;;;;;;47.25;23.98;;;;;;;-144.19;100.00;79588.09;4976109;28;20063;-88
2022/01/12 06:59:24;;;;;;;46.15;24.17;;;;;;;-144.19;100.00;79619.59;4976943;28;20047;-89
2022/01/12 07:01:58;;;;;;;43.55;23.30;;;;;;;-144.19;100.00;79605.81;4976308;28;20055;-86
2022/01/12 07:04:49;;;;;;;48.58;25.73;;;;;;;-144.19;100.00;79595.97;4977273;28;20126;-89
2022/01/12 07:07:23;;;;;;;51.35;24.33;;;;;;;-144.19;100.00;79615.66;4976538;28;20055;-88
2022/01/12 07:09:54;;;;;;;52.25;24.98;;;;;;;-144.19;100.00;79594.00;4975920;28;20073;-88
2022/01/12 07:12:22;;;;;;;61.03;26.27;;;;;;;-144.19;100.00;79617.63;4975653;28;20054;-89
2022/01/12 07:14:58;;;;;;;64.57;28.35;;;;;;;-144.19;100.00;79623.53;4975922;28;20058;-88
2022/01/12 07:17:28;;;;;;;70.97;28.40;;;;;;;-144.19;100.00;79599.91;4975182;28;20051;-89
2022/01/12 07:19:57;;;;;;;66.93;29.70;;;;;;;-144.19;100.00;79623.53;4975912;28;20074;-87
2022/01/12 07:22:25;;;;;;;68.25;28.70;;;;;;;-144.19;100.00;79637.34;4975711;28;20058;-88
2022/01/12 07:24:56;;;;;;;66.40;29.10;;;;;;;-144.19;100.00;79625.50;4975461;28;20055;-88
2022/01/12 07:27:29;;;;;;;71.03;30.77;;;;;;;-144.19;100.00;79635.38;4975405;28;20085;-89
2022/01/12 07:30:11;;;;;;;80.90;34.13;;;;;;;-144.19;100.00;79615.66;4976357;28;20042;-88
2022/01/12 07:33:04;;;;;;;66.17;31.03;;;;;;;-144.19;100.00;79623.53;4974809;28;20054;-88
2022/01/12 07:35:38;;;;;;;71.40;32.35;;;;;;;-144.19;100.00;79607.78;4975816;28;20065;-88
2022/01/12 07:38:06;;;;;;;72.70;32.70;;;;;;;-144.19;100.00;79639.31;4975784;28;20075;-88
2022/01/12 07:40:39;;;;;;;85.22;32.72;;;;;;;-144.19;100.00;79637.34;4975628;28;20075;-88
2022/01/12 07:43:11;;;;;;;78.97;35.97;;;;;;;-144.19;100.00;79635.38;4976155;28;20118;-88
2022/01/12 07:45:40;;;;;;;78.65;34.88;;;;;;;-144.19;100.00;79647.19;4978653;28;20063;-88
2022/01/12 07:48:22;;;;;;;82.30;35.60;;;;;;;-144.19;100.00;79633.41;4995482;28;20039;-88
2022/01/12 07:50:53;;;;;;;84.03;37.90;;;;;;;-144.19;100.00;79637.34;4979087;28;20050;-88
2022/01/12 07:53:45;;;;;;;80.18;36.10;;;;;;;-144.19;100.00;79659.00;4977918;28;20077;-88
2022/01/12 07:56:13;;;;;;;81.97;37.63;;;;;;;-144.19;100.00;79653.09;4967331;28;20103;-88
2022/01/12 07:58:42;;;;;;;84.93;34.92;;;;;;;-144.19;100.00;79662.94;4959242;29;20458;-89
2022/01/12 08:01:12;;;;;;;90.28;39.08;;;;;;;-144.19;100.00;79639.31;4975512;28;20047;-88
2022/01/12 08:03:47;;;;;;;107.55;42.47;;;;;;;-144.19;100.00;79643.25;4958821;29;20039;-88
2022/01/12 08:06:15;;;;;;;101.80;39.20;;;;;;;-144.19;100.00;79635.38;4978834;28;20031;-88
2022/01/12 08:08:45;;;;;;;93.13;38.83;;;;;;;-144.19;100.00;79641.28;4979178;28;20047;-88
2022/01/12 08:11:13;;;;;;;85.93;37.47;;;;;;;-144.19;100.00;79659.00;4976103;28;20078;-88
2022/01/12 08:16:10;;;;;;;92.78;38.63;;;;;;;-144.19;100.00;79670.81;4953755;29;20059;-92
2022/01/12 08:18:36;;;;;;;92.47;41.95;;;;;;;-144.19;100.00;79662.94;4955621;29;20062;-91
2022/01/12 08:21:05;;;;;;;100.60;39.72;;;;;;;-144.19;100.00;79655.06;4938360;29;20546;-93
2022/01/12 08:23:32;;;;;;;95.05;41.38;;;;;;;-144.19;100.00;79635.38;4938759;29;20055;-91
2022/01/12 08:26:03;;;;;;;84.72;39.80;;;;;;;-144.19;100.00;79649.16;4939798;29;20106;-91
2022/01/12 08:28:30;;;;;;;90.93;39.35;;;;;;;-144.19;100.00;79678.72;4938983;29;20067;-91
2022/01/12 08:30:56;;;;;;;92.93;39.30;;;;;;;-144.19;100.00;79678.72;4938464;29;20051;-89
2022/01/12 08:33:22;;;;;;;94.22;41.45;;;;;;;-144.19;100.00;79678.72;4954982;29;20051;-91
2022/01/12 08:35:49;;;;;;;93.67;38.37;;;;;;;-144.19;100.00;79662.94;4938354;29;20398;-89
2022/01/12 08:38:20;;;;;;;86.97;36.70;;;;;;;-144.19;100.00;79680.69;4938161;29;20161;-89
2022/01/12 08:40:46;;;;;;;85.13;35.43;;;;;;;-144.19;100.00;79670.81;4937671;29;20055;-92
2022/01/12 08:43:13;;;;;;;85.93;37.63;;;;;;;-144.19;100.00;79674.75;4938425;29;20055;-92
2022/01/12 08:45:39;;;;;;;92.45;39.42;;;;;;;-144.19;100.00;79684.63;4938408;29;20059;-92
2022/01/12 08:48:06;;;;;;;102.95;43.88;;;;;;;-144.19;100.00;79678.72;4939081;29;20062;-92
2022/01/12 08:50:32;;;;;;;95.10;39.53;;;;;;;-144.19;100.00;79686.59;4955446;29;20057;-91
2022/01/12 08:53:12;;;;;;;98.82;39.10;;;;;;;-144.19;100.00;79678.72;4938476;29;20551;-91
2022/01/12 08:55:38;;;;;;;93.65;40.42;;;;;;;-144.19;100.00;79674.75;4955576;29;20078;-92
2022/01/12 08:58:06;;;;;;;87.78;39.22;;;;;;;-144.19;100.00;79670.81;4938375;29;20055;-91
2022/01/12 09:00:32;;;;;;;;;;;;;;;-144.19;100.00;79678.72;4939034;29;20425;-92
2022/01/12 09:02:59;;;;;;;94.32;36.60;;;;;;;-144.19;100.00;79670.81;4938565;29;20281;-91
2022/01/12 09:05:26;;;;;;;97.68;38.42;;;;;;;-144.19;100.00;79672.78;4938092;29;20502;-92
2022/01/12 09:07:53;;;;;;;93.13;36.47;;;;;;;-144.19;100.00;79655.06;4938170;29;20421;-92
2022/01/12 09:10:19;;;;;;;83.78;38.15;;;;;;;-144.19;100.00;79653.09;4938555;29;20417;-92
2022/01/12 09:12:47;;;;;;;97.53;39.38;;;;;;;-144.19;100.00;79651.13;4939037;29;20560;-91
2022/01/12 09:15:13;;;;;;;;;;;;;;;-144.19;100.00;79660.97;4938925;29;20061;-92
2022/01/12 09:17:44;;;;;;;105.25;40.60;;;;;;;-144.19;100.00;79635.38;4938627;29;19922;-92
2022/01/12 09:20:15;;;;;;;91.95;37.88;;;;;;;-144.19;100.00;79635.38;4939103;29;20051;-92
2022/01/12 09:22:41;;;;;;;91.93;39.17;;;;;;;-144.19;100.00;79639.31;4937850;29;20553;-93
2022/01/12 09:25:09;;;;;;;94.85;38.78;;;;;;;-144.19;100.00;79631.44;4938629;29;20055;-92
2022/01/12 09:27:37;;;;;;;107.13;43.28;;;;;;;-144.19;100.00;79631.44;4938036;29;20474;-92
2022/01/12 09:30:06;;;;;;;92.47;40.38;;;;;;;-144.19;100.00;79635.38;4937867;29;20058;-92
2022/01/12 09:32:33;;;;;;;92.80;37.20;;;;;;;-144.19;100.00;79643.25;4937822;29;20449;-91
2022/01/12 09:35:00;;;;;;;98.88;41.33;;;;;;;-144.19;100.00;79647.19;4937861;29;20054;-91
2022/01/12 09:37:28;;;;;;;85.57;38.35;;;;;;;-144.19;100.00;79633.41;4937832;29;20138;-91
2022/01/12 09:39:55;;;;;;;91.03;39.70;;;;;;;-144.19;100.00;79643.25;4937939;29;20139;-92
2022/01/12 09:42:21;;;;;;;90.38;41.13;;;;;;;-144.19;100.00;79647.19;4938003;29;20061;-91
2022/01/12 09:44:52;;;;;;;82.93;35.08;;;;;;;-144.19;100.00;79619.59;4938713;29;20055;-92
2022/01/12 09:47:20;;;;;;;86.07;36.72;;;;;;;-144.19;100.00;79611.72;4955523;28;20429;-91
2022/01/12 09:49:47;;;;;;;;;;;;;;;-144.19;100.00;79623.53;4938754;29;20054;-91
2022/01/12 09:52:14;;;;;;;78.13;34.20;;;;;;;-144.19;100.00;79619.59;4937908;29;19950;-91
2022/01/12 09:54:41;;;;;;;81.43;32.55;;;;;;;-144.19;100.00;79603.84;4954640;29;20051;-91
2022/01/12 09:57:08;;;;;;;80.30;33.72;;;;;;;-144.19;100.00;79615.66;4937523;29;20139;-92
2022/01/12 09:59:36;;;;;;;72.57;33.70;;;;;;;-144.19;100.00;79599.91;4938240;29;20051;-92
2022/01/12 10:02:03;;;;;;;78.40;34.60;;;;;;;-144.19;100.00;79594.00;4937470;29;20466;-92
2022/01/12 10:04:30;;;;;;;77.15;32.28;;;;;;;-144.19;100.00;79629.47;4937465;29;20054;-92
2022/01/12 10:07:02;;;;;;;76.38;34.03;;;;;;;-144.19;100.00;79611.72;4937464;29;20398;-92
2022/01/12 10:09:35;;;;;;;71.95;32.03;;;;;;;-144.19;100.00;79615.66;4937550;29;20075;-92
2022/01/12 10:12:05;;;;;;;74.25;33.55;;;;;;;-144.19;100.00;79627.50;4937134;29;20129;-92
2022/01/12 10:14:39;;;;;;;71.25;33.72;;;;;;;-144.19;100.00;79619.59;4937458;29;20063;-92
2022/01/12 10:17:05;;;;;;;74.88;36.40;;;;;;;-144.19;100.00;79629.47;4936805;29;20055;-92
2022/01/12 10:19:33;;;;;;;79.55;33.65;;;;;;;-144.19;100.00;79623.53;4936696;29;20075;-91
2022/01/12 10:22:03;;;;;;;72.35;33.25;;;;;;;-144.19;100.00;79615.66;4936771;29;20051;-93
2022/01/12 10:24:30;;;;;;;80.18;32.38;;;;;;;-144.19;100.00;79584.16;4936391;29;20055;-92
2022/01/12 10:26:57;;;;;;;75.65;34.88;;;;;;;-144.19;100.00;79586.13;4936179;29;20103;-92
2022/01/12 10:29:27;;;;;;;73.10;33.95;;;;;;;-144.19;100.00;79584.16;4935835;29;20054;-92
2022/01/12 10:31:57;;;;;;;75.05;32.60;;;;;;;-144.19;100.00;79595.97;4936349;29;20051;-91
2022/01/12 10:34:35;;;;;;;77.35;35.13;;;;;;;-144.19;100.00;79592.03;4936544;29;20078;-91
2022/01/12 10:37:10;;;;;;;72.00;32.30;;;;;;;-144.19;100.00;79568.38;4936642;29;20086;-92
2022/01/12 10:39:48;;;;;;;75.53;33.55;;;;;;;-144.19;100.00;79570.34;4941836;28;20082;-91
2022/01/12 10:42:22;;;;;;;;;;;;;;;-144.19;100.00;79562.47;4956898;28;20170;-92
2022/01/12 10:44:57;;;;;;;69.18;30.48;;;;;;;-144.19;100.00;79572.34;4942210;29;20012;-92
2022/01/12 10:47:27;;;;;;;64.75;29.35;;;;;;;-144.19;100.00;79595.97;4937256;29;20051;-91
2022/01/12 10:50:10;;;;;;;57.85;29.27;;;;;;;-144.19;100.00;79580.22;4952964;28;20490;-92
2022/01/12 10:52:47;;;;;;;71.55;33.65;;;;;;;-144.19;100.00;79564.44;4952879;28;20067;-91
2022/01/12 10:55:18;;;;;;;70.57;33.97;;;;;;;-144.19;100.00;79568.38;4952975;28;20102;-91
2022/01/12 10:57:49;;;;;;;77.10;34.65;;;;;;;-144.19;100.00;79568.38;4937646;29;20146;-92
2022/01/12 11:00:19;;;;;;;74.63;34.75;;;;;;;-144.19;100.00;79542.78;4953216;29;20055;-92
2022/01/12 11:02:55;;;;;;;59.20;31.98;;;;;;;-144.19;100.00;79544.75;4937668;29;20062;-92
2022/01/12 11:05:38;;;;;;;71.57;33.72;;;;;;;-144.19;100.00;79546.72;4936776;29;20111;-92
2022/01/12 11:08:05;;;;;;;64.78;32.58;;;;;;;-144.19;100.00;79536.88;4937083;29;20078;-92
2022/01/12 11:10:33;;;;;;;58.38;28.92;;;;;;;-144.19;100.00;79536.88;4937226;29;20047;-91
2022/01/12 11:13:00;;;;;;;;;;;;;;;-144.19;100.00;79515.19;4937245;29;20577;-91
2022/01/12 11:15:27;;;;;;;56.45;28.35;;;;;;;-144.19;100.00;79523.09;4937371;29;19922;-92
2022/01/12 11:17:55;;;;;;;57.22;28.70;;;;;;;-144.19;100.00;79509.28;4952996;29;20110;-91
2022/01/12 11:20:26;;;;;;;;;;;;;;;-144.19;100.00;79511.25;4937672;29;20043;-92
2022/01/12 11:23:00;;;;;;;49.92;26.52;;;;;;;-144.19;100.00;79487.63;4936959;29;19922;-91
2022/01/12 11:25:37;;;;;;;51.75;26.73;;;;;;;-144.19;100.00;79493.53;4936992;29;20134;-92
2022/01/12 11:28:23;;;;;;;50.13;26.98;;;;;;;-144.19;100.00;79428.53;4936879;29;20134;-92
2022/01/12 11:30:50;;;;;;;60.80;29.65;;;;;;;-144.19;100.00;79418.69;4939026;29;20074;-92
2022/01/12 11:33:29;;;;;;;61.83;29.35;;;;;;;-144.19;100.00;79430.50;4940669;29;20065;-92
2022/01/12 11:36:02;;;;;;;52.95;29.67;;;;;;;-144.19;100.00;79410.81;4940512;29;20130;-92
2022/01/12 11:38:35;;;;;;;55.15;28.48;;;;;;;-144.19;100.00;79402.91;4940523;29;20070;-92
2022/01/12 11:41:43;;;;;;;58.60;31.48;;;;;;;-144.19;100.00;79438.38;4939976;29;20143;-92
2022/01/12 11:44:22;;;;;;;55.15;27.88;;;;;;;-144.19;100.00;79436.41;4882493;29;20462;-91
2022/01/12 11:46:56;;;;;;;61.10;28.80;;;;;;;-144.19;100.00;79410.81;4936374;29;20047;-92
2022/01/12 11:49:38;;;;;;;49.25;27.05;;;;;;;-144.19;100.00;79414.75;4940423;29;20054;-91
2022/01/12 11:52:18;;;;;;;45.45;24.58;;;;;;;-144.19;100.00;79410.81;4939954;29;20082;-92
2022/01/12 11:54:47;;;;;;;45.45;25.33;;;;;;;-144.19;100.00;79387.16;4940311;29;20146;-92
2022/01/12 11:57:19;;;;;;;47.53;26.75;;;;;;;-144.19;100.00;79383.22;4940479;29;20055;-92
2022/01/12 11:59:52;;;;;;;42.60;23.52;;;;;;;-144.19;100.00;79363.53;4940128;29;20047;-92
2022/01/12 12:02:21;;;;;;;41.83;22.98;;;;;;;-144.19;100.00;79363.53;4940146;29;20097;-92
2022/01/12 12:04:54;;;;;;;40.22;21.35;;;;;;;-144.19;100.00;79377.31;4940111;29;20059;-92
2022/01/12 12:07:22;;;;;;;44.72;21.80;;;;;;;-144.19;100.00;79383.22;4940342;29;20466;-92
2022/01/12 12:09:53;;;;;;;43.38;23.27;;;;;;;-144.19;100.00;79359.59;4940037;29;20509;-91
2022/01/12 12:12:26;;;;;;;40.78;22.27;;;;;;;-144.19;100.00;79328.06;4940445;29;20051;-92
2022/01/12 12:14:57;;;;;;;37.33;19.42;;;;;;;-144.19;100.00;79351.72;4939923;29;20138;-91
2022/01/12 12:17:26;;;;;;;35.97;19.10;;;;;;;-144.19;100.00;79365.50;4939594;29;20134;-93
2022/01/12 12:19:53;;;;;;;32.03;18.83;;;;;;;-144.19;100.00;79339.88;4940292;29;20047;-91
2022/01/12 12:22:25;;;;;;;38.15;22.02;;;;;;;-144.19;100.00;79333.97;4939380;29;20055;-91
2022/01/12 12:24:58;;;;;;;37.17;20.40;;;;;;;-144.19;100.00;79328.06;4956973;29;20061;-92
2022/01/12 12:27:27;;;;;;;39.22;21.00;;;;;;;-144.19;100.00;79332.00;4939366;29;20142;-92
2022/01/12 12:29:54;;;;;;;37.78;21.88;;;;;;;-144.19;100.00;79318.22;4938984;29;20051;-92
2022/01/12 12:32:32;;;;;;;;;;;;;;;-144.19;100.00;79355.66;4940173;29;20078;-92
2022/01/12 12:35:05;;;;;;;42.58;21.75;;;;;;;-144.19;100.00;79353.69;4956418;29;19929;-91
2022/01/12 12:37:48;;;;;;;41.53;21.85;;;;;;;-144.19;100.00;79330.03;4957351;29;20142;-91
2022/01/12 12:40:32;;;;;;;41.88;22.20;;;;;;;-144.19;100.00;79349.75;4941215;29;20043;-91
2022/01/12 12:43:13;;;;;;;47.15;21.98;;;;;;;-144.19;100.00;79351.72;4938457;29;20544;-91
2022/01/12 12:45:54;;;;;;;39.00;21.95;;;;;;;-144.19;100.00;79373.38;4956912;29;20071;-91
2022/01/12 12:48:26;;;;;;;43.03;21.88;;;;;;;-144.19;100.00;79371.41;4939592;29;20063;-91